sensor_id;sensor_type;location;lat;lon;timestamp;P1;P2;P0
70255;PMS5003;57669;52.624;-1.688;2023-04-22T00:01:22;68;67;
70255;PMS5003;57669;52.624;-1.688;2023-04-22T00:03:48;67;63;
70255;PMS5003;57669;52.624;-1.688;2023-04-22T00:06:13;62;59;
70255;PMS5003;57669;52.624;-1.688;2023-04-22T00:08:39;67;65;
70255;PMS5003;57669;52.624;-1.688;2023-04-22T00:11:04;65;58;
70255;PMS5003;57669;52.624;-1.688;2023-04-22T00:13:30;62;60;
70255;PMS5003;57669;52.624;-1.688;2023-04-22T00:15:55;62;59;
70255;PMS5003;57669;52.624;-1.688;2023-04-22T00:18:20;65;62;
70255;PMS5003;57669;52.624;-1.688;2023-04-22T00:20:46;65;65;
70255;PMS5003;57669;52.624;-1.688;2023-04-22T00:23:12;64;60;
70255;PMS5003;57669;52.624;-1.688;2023-04-22T00:25:37;65;64;
70255;PMS5003;57669;52.624;-1.688;2023-04-22T00:28:02;66;61;
70255;PMS5003;57669;52.624;-1.688;2023-04-22T00:30:27;63;61;
70255;PMS5003;57669;52.624;-1.688;2023-04-22T00:32:53;56;54;
70255;PMS5003;57669;52.624;-1.688;2023-04-22T00:35:18;64;62;
70255;PMS5003;57669;52.624;-1.688;2023-04-22T00:37:44;68;66;
70255;PMS5003;57669;52.624;-1.688;2023-04-22T00:40:10;69;68;
70255;PMS5003;57669;52.624;-1.688;2023-04-22T00:42:35;63;60;
70255;PMS5003;57669;52.624;-1.688;2023-04-22T00:45:00;65;61;
70255;PMS5003;57669;52.624;-1.688;2023-04-22T00:47:25;70;67;
70255;PMS5003;57669;52.624;-1.688;2023-04-22T00:49:51;63;61;
70255;PMS5003;57669;52.624;-1.688;2023-04-22T00:52:17;60;58;
70255;PMS5003;57669;52.624;-1.688;2023-04-22T00:54:42;60;59;
70255;PMS5003;57669;52.624;-1.688;2023-04-22T00:57:07;61;60;
70255;PMS5003;57669;52.624;-1.688;2023-04-22T00:59:33;67;63;
70255;PMS5003;57669;52.624;-1.688;2023-04-22T01:01:58;78;70;
70255;PMS5003;57669;52.624;-1.688;2023-04-22T01:04:24;57;53;
70255;PMS5003;57669;52.624;-1.688;2023-04-22T01:06:50;71;68;
70255;PMS5003;57669;52.624;-1.688;2023-04-22T01:09:15;65;61;
70255;PMS5003;57669;52.624;-1.688;2023-04-22T01:11:41;57;53;
70255;PMS5003;57669;52.624;-1.688;2023-04-22T01:14:06;68;62;
70255;PMS5003;57669;52.624;-1.688;2023-04-22T01:16:31;59;56;
70255;PMS5003;57669;52.624;-1.688;2023-04-22T01:18:57;63;60;
70255;PMS5003;57669;52.624;-1.688;2023-04-22T01:21:22;60;56;
70255;PMS5003;57669;52.624;-1.688;2023-04-22T01:23:48;66;65;
70255;PMS5003;57669;52.624;-1.688;2023-04-22T01:26:14;64;62;
70255;PMS5003;57669;52.624;-1.688;2023-04-22T01:28:39;53;52;
70255;PMS5003;57669;52.624;-1.688;2023-04-22T01:31:05;59;55;
70255;PMS5003;57669;52.624;-1.688;2023-04-22T01:33:31;53;52;
70255;PMS5003;57669;52.624;-1.688;2023-04-22T01:35:56;62;61;
70255;PMS5003;57669;52.624;-1.688;2023-04-22T01:38:22;64;62;
70255;PMS5003;57669;52.624;-1.688;2023-04-22T01:40:47;68;63;
70255;PMS5003;57669;52.624;-1.688;2023-04-22T01:43:12;57;54;
70255;PMS5003;57669;52.624;-1.688;2023-04-22T01:45:37;63;59;
70255;PMS5003;57669;52.624;-1.688;2023-04-22T01:48:03;64;61;
70255;PMS5003;57669;52.624;-1.688;2023-04-22T01:50:28;67;61;
70255;PMS5003;57669;52.624;-1.688;2023-04-22T01:52:53;57;55;
70255;PMS5003;57669;52.624;-1.688;2023-04-22T01:55:19;55;51;
70255;PMS5003;57669;52.624;-1.688;2023-04-22T01:57:44;63;57;
70255;PMS5003;57669;52.624;-1.688;2023-04-22T02:00:10;53;51;
70255;PMS5003;57669;52.624;-1.688;2023-04-22T02:02:35;54;53;
70255;PMS5003;57669;52.624;-1.688;2023-04-22T02:05:01;60;57;
70255;PMS5003;57669;52.624;-1.688;2023-04-22T02:07:26;58;56;
70255;PMS5003;57669;52.624;-1.688;2023-04-22T02:09:51;62;59;
70255;PMS5003;57669;52.624;-1.688;2023-04-22T02:12:16;57;55;
70255;PMS5003;57669;52.624;-1.688;2023-04-22T02:14:42;51;51;
70255;PMS5003;57669;52.624;-1.688;2023-04-22T02:17:07;57;56;
70255;PMS5003;57669;52.624;-1.688;2023-04-22T02:19:32;57;53;
70255;PMS5003;57669;52.624;-1.688;2023-04-22T02:21:58;55;54;
70255;PMS5003;57669;52.624;-1.688;2023-04-22T02:24:23;58;56;
70255;PMS5003;57669;52.624;-1.688;2023-04-22T02:26:49;57;54;
70255;PMS5003;57669;52.624;-1.688;2023-04-22T02:29:15;57;56;
70255;PMS5003;57669;52.624;-1.688;2023-04-22T02:31:40;59;55;
70255;PMS5003;57669;52.624;-1.688;2023-04-22T02:34:06;58;57;
70255;PMS5003;57669;52.624;-1.688;2023-04-22T02:36:31;61;53;
70255;PMS5003;57669;52.624;-1.688;2023-04-22T02:38:57;57;56;
70255;PMS5003;57669;52.624;-1.688;2023-04-22T02:41:22;50;48;
70255;PMS5003;57669;52.624;-1.688;2023-04-22T02:43:47;60;56;
70255;PMS5003;57669;52.624;-1.688;2023-04-22T02:46:13;59;55;
70255;PMS5003;57669;52.624;-1.688;2023-04-22T02:48:38;58;55;
70255;PMS5003;57669;52.624;-1.688;2023-04-22T02:51:04;58;55;
70255;PMS5003;57669;52.624;-1.688;2023-04-22T02:53:29;53;50;
70255;PMS5003;57669;52.624;-1.688;2023-04-22T02:55:55;56;53;
70255;PMS5003;57669;52.624;-1.688;2023-04-22T02:58:20;46;45;
70255;PMS5003;57669;52.624;-1.688;2023-04-22T03:00:45;51;48;
70255;PMS5003;57669;52.624;-1.688;2023-04-22T03:03:11;53;50;
70255;PMS5003;57669;52.624;-1.688;2023-04-22T03:05:36;48;46;
70255;PMS5003;57669;52.624;-1.688;2023-04-22T03:08:01;50;49;
70255;PMS5003;57669;52.624;-1.688;2023-04-22T03:10:27;50;48;
70255;PMS5003;57669;52.624;-1.688;2023-04-22T03:12:52;59;57;
70255;PMS5003;57669;52.624;-1.688;2023-04-22T03:15:18;54;52;
70255;PMS5003;57669;52.624;-1.688;2023-04-22T03:17:43;58;56;
70255;PMS5003;57669;52.624;-1.688;2023-04-22T03:20:09;58;55;
70255;PMS5003;57669;52.624;-1.688;2023-04-22T03:22:34;48;47;
70255;PMS5003;57669;52.624;-1.688;2023-04-22T03:25:00;60;60;
70255;PMS5003;57669;52.624;-1.688;2023-04-22T03:27:25;51;49;
70255;PMS5003;57669;52.624;-1.688;2023-04-22T03:29:51;52;51;
70255;PMS5003;57669;52.624;-1.688;2023-04-22T03:32:16;53;52;
70255;PMS5003;57669;52.624;-1.688;2023-04-22T03:34:41;52;49;
70255;PMS5003;57669;52.624;-1.688;2023-04-22T03:37:07;54;52;
70255;PMS5003;57669;52.624;-1.688;2023-04-22T03:39:32;51;50;
70255;PMS5003;57669;52.624;-1.688;2023-04-22T03:41:58;61;61;
70255;PMS5003;57669;52.624;-1.688;2023-04-22T03:44:23;49;47;
70255;PMS5003;57669;52.624;-1.688;2023-04-22T03:46:49;48;46;
70255;PMS5003;57669;52.624;-1.688;2023-04-22T03:49:14;49;47;
70255;PMS5003;57669;52.624;-1.688;2023-04-22T03:51:40;48;46;
70255;PMS5003;57669;52.624;-1.688;2023-04-22T03:54:05;52;50;
70255;PMS5003;57669;52.624;-1.688;2023-04-22T03:56:30;48;48;
70255;PMS5003;57669;52.624;-1.688;2023-04-22T03:58:55;56;56;
70255;PMS5003;57669;52.624;-1.688;2023-04-22T04:01:21;58;53;
70255;PMS5003;57669;52.624;-1.688;2023-04-22T04:03:46;63;59;
70255;PMS5003;57669;52.624;-1.688;2023-04-22T04:06:12;48;47;
70255;PMS5003;57669;52.624;-1.688;2023-04-22T04:08:38;59;54;
70255;PMS5003;57669;52.624;-1.688;2023-04-22T04:11:04;45;44;
70255;PMS5003;57669;52.624;-1.688;2023-04-22T04:13:30;54;52;
70255;PMS5003;57669;52.624;-1.688;2023-04-22T04:15:55;51;48;
70255;PMS5003;57669;52.624;-1.688;2023-04-22T04:18:21;49;49;
70255;PMS5003;57669;52.624;-1.688;2023-04-22T04:20:46;51;50;
70255;PMS5003;57669;52.624;-1.688;2023-04-22T04:23:12;51;50;
70255;PMS5003;57669;52.624;-1.688;2023-04-22T04:25:37;49;47;
70255;PMS5003;57669;52.624;-1.688;2023-04-22T04:28:02;54;52;
70255;PMS5003;57669;52.624;-1.688;2023-04-22T04:30:27;56;51;
70255;PMS5003;57669;52.624;-1.688;2023-04-22T04:32:53;49;48;
70255;PMS5003;57669;52.624;-1.688;2023-04-22T04:35:18;59;52;
70255;PMS5003;57669;52.624;-1.688;2023-04-22T04:37:44;62;60;
70255;PMS5003;57669;52.624;-1.688;2023-04-22T04:40:09;53;51;
70255;PMS5003;57669;52.624;-1.688;2023-04-22T04:42:34;50;48;
70255;PMS5003;57669;52.624;-1.688;2023-04-22T04:45:00;50;49;
70255;PMS5003;57669;52.624;-1.688;2023-04-22T04:47:25;52;48;
70255;PMS5003;57669;52.624;-1.688;2023-04-22T04:49:50;53;51;
70255;PMS5003;57669;52.624;-1.688;2023-04-22T04:52:16;60;59;
70255;PMS5003;57669;52.624;-1.688;2023-04-22T04:54:41;56;55;
70255;PMS5003;57669;52.624;-1.688;2023-04-22T04:57:07;59;57;
70255;PMS5003;57669;52.624;-1.688;2023-04-22T04:59:32;51;50;
70255;PMS5003;57669;52.624;-1.688;2023-04-22T05:01:57;57;55;
70255;PMS5003;57669;52.624;-1.688;2023-04-22T05:04:23;54;51;
70255;PMS5003;57669;52.624;-1.688;2023-04-22T05:06:49;59;56;
70255;PMS5003;57669;52.624;-1.688;2023-04-22T05:09:14;62;58;
70255;PMS5003;57669;52.624;-1.688;2023-04-22T05:11:39;56;55;
70255;PMS5003;57669;52.624;-1.688;2023-04-22T05:14:05;57;56;
70255;PMS5003;57669;52.624;-1.688;2023-04-22T05:16:30;53;52;
70255;PMS5003;57669;52.624;-1.688;2023-04-22T05:18:56;49;48;
70255;PMS5003;57669;52.624;-1.688;2023-04-22T05:21:21;57;55;
70255;PMS5003;57669;52.624;-1.688;2023-04-22T05:23:47;59;56;
70255;PMS5003;57669;52.624;-1.688;2023-04-22T05:26:12;56;54;
70255;PMS5003;57669;52.624;-1.688;2023-04-22T05:28:37;58;55;
70255;PMS5003;57669;52.624;-1.688;2023-04-22T05:31:03;57;57;
70255;PMS5003;57669;52.624;-1.688;2023-04-22T05:33:29;58;52;
70255;PMS5003;57669;52.624;-1.688;2023-04-22T05:35:54;54;52;
70255;PMS5003;57669;52.624;-1.688;2023-04-22T05:38:20;60;55;
70255;PMS5003;57669;52.624;-1.688;2023-04-22T05:40:46;58;55;
70255;PMS5003;57669;52.624;-1.688;2023-04-22T05:43:11;59;56;
70255;PMS5003;57669;52.624;-1.688;2023-04-22T05:45:36;54;53;
70255;PMS5003;57669;52.624;-1.688;2023-04-22T05:48:02;67;62;
70255;PMS5003;57669;52.624;-1.688;2023-04-22T05:50:27;57;54;
70255;PMS5003;57669;52.624;-1.688;2023-04-22T05:52:53;57;56;
70255;PMS5003;57669;52.624;-1.688;2023-04-22T05:55:18;62;60;
70255;PMS5003;57669;52.624;-1.688;2023-04-22T05:57:43;63;61;
70255;PMS5003;57669;52.624;-1.688;2023-04-22T06:00:09;56;56;
70255;PMS5003;57669;52.624;-1.688;2023-04-22T06:02:34;62;61;
70255;PMS5003;57669;52.624;-1.688;2023-04-22T06:05:00;68;65;
70255;PMS5003;57669;52.624;-1.688;2023-04-22T06:07:25;68;65;
70255;PMS5003;57669;52.624;-1.688;2023-04-22T06:09:50;65;62;
70255;PMS5003;57669;52.624;-1.688;2023-04-22T06:12:17;67;65;
70255;PMS5003;57669;52.624;-1.688;2023-04-22T06:14:42;65;62;
70255;PMS5003;57669;52.624;-1.688;2023-04-22T06:17:07;64;60;
70255;PMS5003;57669;52.624;-1.688;2023-04-22T06:19:33;62;59;
70255;PMS5003;57669;52.624;-1.688;2023-04-22T06:21:58;58;55;
70255;PMS5003;57669;52.624;-1.688;2023-04-22T06:24:24;64;61;
70255;PMS5003;57669;52.624;-1.688;2023-04-22T06:26:49;59;57;
70255;PMS5003;57669;52.624;-1.688;2023-04-22T06:29:14;56;52;
70255;PMS5003;57669;52.624;-1.688;2023-04-22T06:31:40;62;60;
70255;PMS5003;57669;52.624;-1.688;2023-04-22T06:34:05;68;67;
70255;PMS5003;57669;52.624;-1.688;2023-04-22T06:36:31;69;66;
70255;PMS5003;57669;52.624;-1.688;2023-04-22T06:38:56;66;62;
70255;PMS5003;57669;52.624;-1.688;2023-04-22T06:41:22;66;64;
70255;PMS5003;57669;52.624;-1.688;2023-04-22T06:43:48;67;61;
70255;PMS5003;57669;52.624;-1.688;2023-04-22T06:46:12;70;69;
70255;PMS5003;57669;52.624;-1.688;2023-04-22T06:48:38;72;67;
70255;PMS5003;57669;52.624;-1.688;2023-04-22T06:51:03;71;68;
70255;PMS5003;57669;52.624;-1.688;2023-04-22T06:53:28;77;74;
70255;PMS5003;57669;52.624;-1.688;2023-04-22T06:55:53;67;64;
70255;PMS5003;57669;52.624;-1.688;2023-04-22T06:58:19;64;63;
70255;PMS5003;57669;52.624;-1.688;2023-04-22T07:00:44;69;65;
70255;PMS5003;57669;52.624;-1.688;2023-04-22T07:03:09;74;72;
70255;PMS5003;57669;52.624;-1.688;2023-04-22T07:05:35;75;73;
70255;PMS5003;57669;52.624;-1.688;2023-04-22T07:08:00;66;63;
70255;PMS5003;57669;52.624;-1.688;2023-04-22T07:10:26;71;70;
70255;PMS5003;57669;52.624;-1.688;2023-04-22T07:12:51;65;65;
70255;PMS5003;57669;52.624;-1.688;2023-04-22T07:15:17;73;65;
70255;PMS5003;57669;52.624;-1.688;2023-04-22T07:17:42;64;62;
70255;PMS5003;57669;52.624;-1.688;2023-04-22T07:20:09;70;69;
70255;PMS5003;57669;52.624;-1.688;2023-04-22T07:22:34;62;60;
70255;PMS5003;57669;52.624;-1.688;2023-04-22T07:24:59;64;62;
70255;PMS5003;57669;52.624;-1.688;2023-04-22T07:27:25;61;61;
70255;PMS5003;57669;52.624;-1.688;2023-04-22T07:29:50;64;62;
70255;PMS5003;57669;52.624;-1.688;2023-04-22T07:32:16;65;62;
70255;PMS5003;57669;52.624;-1.688;2023-04-22T07:34:41;61;59;
70255;PMS5003;57669;52.624;-1.688;2023-04-22T07:37:07;67;61;
70255;PMS5003;57669;52.624;-1.688;2023-04-22T07:39:34;64;61;
70255;PMS5003;57669;52.624;-1.688;2023-04-22T07:41:58;61;60;
70255;PMS5003;57669;52.624;-1.688;2023-04-22T07:44:23;51;51;
70255;PMS5003;57669;52.624;-1.688;2023-04-22T07:46:48;55;54;
70255;PMS5003;57669;52.624;-1.688;2023-04-22T07:49:14;62;60;
70255;PMS5003;57669;52.624;-1.688;2023-04-22T07:51:40;59;58;
70255;PMS5003;57669;52.624;-1.688;2023-04-22T07:54:05;58;56;
70255;PMS5003;57669;52.624;-1.688;2023-04-22T07:56:30;59;57;
70255;PMS5003;57669;52.624;-1.688;2023-04-22T07:58:56;62;61;
70255;PMS5003;57669;52.624;-1.688;2023-04-22T08:01:21;60;60;
70255;PMS5003;57669;52.624;-1.688;2023-04-22T08:03:47;66;65;
70255;PMS5003;57669;52.624;-1.688;2023-04-22T08:06:12;60;59;
70255;PMS5003;57669;52.624;-1.688;2023-04-22T08:08:37;63;62;
70255;PMS5003;57669;52.624;-1.688;2023-04-22T08:11:03;67;63;
70255;PMS5003;57669;52.624;-1.688;2023-04-22T08:13:28;64;62;
70255;PMS5003;57669;52.624;-1.688;2023-04-22T08:15:54;58;57;
70255;PMS5003;57669;52.624;-1.688;2023-04-22T08:18:19;58;58;
70255;PMS5003;57669;52.624;-1.688;2023-04-22T08:20:45;59;55;
70255;PMS5003;57669;52.624;-1.688;2023-04-22T08:23:11;62;60;
70255;PMS5003;57669;52.624;-1.688;2023-04-22T08:25:36;68;67;
70255;PMS5003;57669;52.624;-1.688;2023-04-22T08:28:02;62;60;
70255;PMS5003;57669;52.624;-1.688;2023-04-22T08:30:27;62;61;
70255;PMS5003;57669;52.624;-1.688;2023-04-22T08:32:53;71;64;
70255;PMS5003;57669;52.624;-1.688;2023-04-22T08:35:18;68;65;
70255;PMS5003;57669;52.624;-1.688;2023-04-22T08:37:43;66;63;
70255;PMS5003;57669;52.624;-1.688;2023-04-22T08:40:09;63;59;
70255;PMS5003;57669;52.624;-1.688;2023-04-22T08:42:34;60;57;
70255;PMS5003;57669;52.624;-1.688;2023-04-22T08:45:00;57;54;
70255;PMS5003;57669;52.624;-1.688;2023-04-22T08:47:25;55;53;
70255;PMS5003;57669;52.624;-1.688;2023-04-22T08:49:50;56;52;
70255;PMS5003;57669;52.624;-1.688;2023-04-22T08:52:16;58;56;
70255;PMS5003;57669;52.624;-1.688;2023-04-22T08:54:41;55;54;
70255;PMS5003;57669;52.624;-1.688;2023-04-22T08:57:07;54;54;
70255;PMS5003;57669;52.624;-1.688;2023-04-22T08:59:33;56;53;
70255;PMS5003;57669;52.624;-1.688;2023-04-22T09:01:58;58;56;
70255;PMS5003;57669;52.624;-1.688;2023-04-22T09:04:23;59;59;
70255;PMS5003;57669;52.624;-1.688;2023-04-22T09:06:48;58;53;
70255;PMS5003;57669;52.624;-1.688;2023-04-22T09:09:14;51;50;
70255;PMS5003;57669;52.624;-1.688;2023-04-22T09:11:39;44;43;
70255;PMS5003;57669;52.624;-1.688;2023-04-22T09:14:05;57;57;
70255;PMS5003;57669;52.624;-1.688;2023-04-22T09:16:30;53;52;
70255;PMS5003;57669;52.624;-1.688;2023-04-22T09:18:56;56;52;
70255;PMS5003;57669;52.624;-1.688;2023-04-22T09:21:24;51;51;
70255;PMS5003;57669;52.624;-1.688;2023-04-22T09:23:48;51;50;
70255;PMS5003;57669;52.624;-1.688;2023-04-22T09:26:13;58;53;
70255;PMS5003;57669;52.624;-1.688;2023-04-22T09:28:44;51;50;
70255;PMS5003;57669;52.624;-1.688;2023-04-22T09:31:04;53;50;
70255;PMS5003;57669;52.624;-1.688;2023-04-22T09:33:30;48;48;
70255;PMS5003;57669;52.624;-1.688;2023-04-22T09:35:55;53;50;
70255;PMS5003;57669;52.624;-1.688;2023-04-22T09:38:21;46;46;
70255;PMS5003;57669;52.624;-1.688;2023-04-22T09:40:47;40;40;
70255;PMS5003;57669;52.624;-1.688;2023-04-22T09:43:16;44;43;
70255;PMS5003;57669;52.624;-1.688;2023-04-22T09:45:38;41;38;
70255;PMS5003;57669;52.624;-1.688;2023-04-22T09:48:05;35;35;
70255;PMS5003;57669;52.624;-1.688;2023-04-22T09:50:29;40;39;
70255;PMS5003;57669;52.624;-1.688;2023-04-22T09:52:55;31;30;
70255;PMS5003;57669;52.624;-1.688;2023-04-22T09:55:20;32;30;
70255;PMS5003;57669;52.624;-1.688;2023-04-22T09:57:45;26;26;
70255;PMS5003;57669;52.624;-1.688;2023-04-22T10:00:11;25;25;
70255;PMS5003;57669;52.624;-1.688;2023-04-22T10:02:35;26;26;
70255;PMS5003;57669;52.624;-1.688;2023-04-22T10:05:01;30;30;
70255;PMS5003;57669;52.624;-1.688;2023-04-22T10:07:26;25;25;
70255;PMS5003;57669;52.624;-1.688;2023-04-22T10:09:52;23;23;
70255;PMS5003;57669;52.624;-1.688;2023-04-22T10:12:17;28;27;
70255;PMS5003;57669;52.624;-1.688;2023-04-22T10:14:43;30;29;
70255;PMS5003;57669;52.624;-1.688;2023-04-22T10:17:08;26;26;
70255;PMS5003;57669;52.624;-1.688;2023-04-22T10:19:33;29;29;
70255;PMS5003;57669;52.624;-1.688;2023-04-22T10:22:00;26;24;
70255;PMS5003;57669;52.624;-1.688;2023-04-22T10:24:25;21;21;
70255;PMS5003;57669;52.624;-1.688;2023-04-22T10:26:52;18;17;
70255;PMS5003;57669;52.624;-1.688;2023-04-22T10:29:16;21;20;
70255;PMS5003;57669;52.624;-1.688;2023-04-22T10:31:41;20;17;
70255;PMS5003;57669;52.624;-1.688;2023-04-22T10:34:08;15;14;
70255;PMS5003;57669;52.624;-1.688;2023-04-22T10:36:32;16;16;
70255;PMS5003;57669;52.624;-1.688;2023-04-22T10:41:24;17;17;
70255;PMS5003;57669;52.624;-1.688;2023-04-22T10:43:54;21;20;
70255;PMS5003;57669;52.624;-1.688;2023-04-22T10:51:05;26;24;
70255;PMS5003;57669;52.624;-1.688;2023-04-22T10:53:35;22;21;
70255;PMS5003;57669;52.624;-1.688;2023-04-22T10:55:56;23;23;
70255;PMS5003;57669;52.624;-1.688;2023-04-22T10:58:23;23;21;
70255;PMS5003;57669;52.624;-1.688;2023-04-22T11:00:47;22;22;
70255;PMS5003;57669;52.624;-1.688;2023-04-22T11:03:13;22;22;
70255;PMS5003;57669;52.624;-1.688;2023-04-22T11:05:37;19;19;
70255;PMS5003;57669;52.624;-1.688;2023-04-22T11:08:03;21;20;
70255;PMS5003;57669;52.624;-1.688;2023-04-22T11:10:30;20;19;
70255;PMS5003;57669;52.624;-1.688;2023-04-22T11:12:54;23;23;
70255;PMS5003;57669;52.624;-1.688;2023-04-22T11:15:19;23;23;
70255;PMS5003;57669;52.624;-1.688;2023-04-22T11:17:45;21;20;
70255;PMS5003;57669;52.624;-1.688;2023-04-22T11:20:10;27;26;
70255;PMS5003;57669;52.624;-1.688;2023-04-22T11:22:36;21;21;
70255;PMS5003;57669;52.624;-1.688;2023-04-22T11:25:02;26;26;
70255;PMS5003;57669;52.624;-1.688;2023-04-22T11:27:26;24;24;
70255;PMS5003;57669;52.624;-1.688;2023-04-22T11:32:17;16;16;
70255;PMS5003;57669;52.624;-1.688;2023-04-22T11:34:43;19;19;
70255;PMS5003;57669;52.624;-1.688;2023-04-22T11:37:08;19;18;
70255;PMS5003;57669;52.624;-1.688;2023-04-22T11:39:34;16;16;
70255;PMS5003;57669;52.624;-1.688;2023-04-22T11:41:59;22;22;
70255;PMS5003;57669;52.624;-1.688;2023-04-22T11:44:25;16;16;
70255;PMS5003;57669;52.624;-1.688;2023-04-22T11:46:50;14;14;
70255;PMS5003;57669;52.624;-1.688;2023-04-22T11:49:16;15;14;
70255;PMS5003;57669;52.624;-1.688;2023-04-22T11:54:07;15;14;
70255;PMS5003;57669;52.624;-1.688;2023-04-22T11:56:35;18;17;
70255;PMS5003;57669;52.624;-1.688;2023-04-22T11:58:58;15;15;
70255;PMS5003;57669;52.624;-1.688;2023-04-22T12:01:23;16;16;
70255;PMS5003;57669;52.624;-1.688;2023-04-22T12:03:55;16;16;
70255;PMS5003;57669;52.624;-1.688;2023-04-22T12:06:14;17;15;
70255;PMS5003;57669;52.624;-1.688;2023-04-22T12:08:40;19;19;
70255;PMS5003;57669;52.624;-1.688;2023-04-22T12:11:06;14;14;
70255;PMS5003;57669;52.624;-1.688;2023-04-22T12:13:31;14;14;
70255;PMS5003;57669;52.624;-1.688;2023-04-22T12:15:57;18;17;
70255;PMS5003;57669;52.624;-1.688;2023-04-22T12:20:47;18;18;
70255;PMS5003;57669;52.624;-1.688;2023-04-22T12:23:12;15;15;
70255;PMS5003;57669;52.624;-1.688;2023-04-22T12:25:37;18;17;
70255;PMS5003;57669;52.624;-1.688;2023-04-22T12:28:02;14;14;
70255;PMS5003;57669;52.624;-1.688;2023-04-22T12:30:28;14;14;
70255;PMS5003;57669;52.624;-1.688;2023-04-22T12:32:54;15;13;
70255;PMS5003;57669;52.624;-1.688;2023-04-22T12:35:19;17;16;
70255;PMS5003;57669;52.624;-1.688;2023-04-22T12:37:44;13;13;
70255;PMS5003;57669;52.624;-1.688;2023-04-22T12:40:10;17;17;
70255;PMS5003;57669;52.624;-1.688;2023-04-22T12:42:36;12;12;
70255;PMS5003;57669;52.624;-1.688;2023-04-22T12:45:01;18;18;
70255;PMS5003;57669;52.624;-1.688;2023-04-22T12:47:27;17;17;
70255;PMS5003;57669;52.624;-1.688;2023-04-22T12:49:52;16;15;
70255;PMS5003;57669;52.624;-1.688;2023-04-22T12:52:18;19;18;
70255;PMS5003;57669;52.624;-1.688;2023-04-22T12:54:43;15;15;
70255;PMS5003;57669;52.624;-1.688;2023-04-22T12:57:09;19;19;
70255;PMS5003;57669;52.624;-1.688;2023-04-22T12:59:35;24;21;
70255;PMS5003;57669;52.624;-1.688;2023-04-22T13:02:00;22;22;
70255;PMS5003;57669;52.624;-1.688;2023-04-22T13:04:25;22;22;
70255;PMS5003;57669;52.624;-1.688;2023-04-22T13:06:50;27;27;
70255;PMS5003;57669;52.624;-1.688;2023-04-22T13:09:16;23;23;
70255;PMS5003;57669;52.624;-1.688;2023-04-22T13:11:41;21;21;
70255;PMS5003;57669;52.624;-1.688;2023-04-22T13:14:06;21;21;
70255;PMS5003;57669;52.624;-1.688;2023-04-22T13:16:31;19;18;
70255;PMS5003;57669;52.624;-1.688;2023-04-22T13:18:57;20;19;
70255;PMS5003;57669;52.624;-1.688;2023-04-22T13:21:23;27;25;
70255;PMS5003;57669;52.624;-1.688;2023-04-22T13:23:48;19;18;
70255;PMS5003;57669;52.624;-1.688;2023-04-22T13:26:14;19;18;
70255;PMS5003;57669;52.624;-1.688;2023-04-22T13:28:39;21;21;
70255;PMS5003;57669;52.624;-1.688;2023-04-22T13:31:05;17;17;
70255;PMS5003;57669;52.624;-1.688;2023-04-22T13:33:30;19;18;
70255;PMS5003;57669;52.624;-1.688;2023-04-22T13:35:56;18;17;
70255;PMS5003;57669;52.624;-1.688;2023-04-22T13:38:21;15;15;
70255;PMS5003;57669;52.624;-1.688;2023-04-22T13:40:47;18;17;
70255;PMS5003;57669;52.624;-1.688;2023-04-22T13:43:13;16;16;
70255;PMS5003;57669;52.624;-1.688;2023-04-22T13:45:38;19;17;
70255;PMS5003;57669;52.624;-1.688;2023-04-22T13:48:04;15;15;
70255;PMS5003;57669;52.624;-1.688;2023-04-22T13:50:29;19;19;
70255;PMS5003;57669;52.624;-1.688;2023-04-22T13:52:55;14;14;
70255;PMS5003;57669;52.624;-1.688;2023-04-22T13:55:20;15;15;
70255;PMS5003;57669;52.624;-1.688;2023-04-22T13:57:46;17;13;
70255;PMS5003;57669;52.624;-1.688;2023-04-22T14:00:12;16;16;
70255;PMS5003;57669;52.624;-1.688;2023-04-22T14:02:37;15;15;
70255;PMS5003;57669;52.624;-1.688;2023-04-22T14:05:03;17;17;
70255;PMS5003;57669;52.624;-1.688;2023-04-22T14:07:28;18;17;
70255;PMS5003;57669;52.624;-1.688;2023-04-22T14:09:53;18;18;
70255;PMS5003;57669;52.624;-1.688;2023-04-22T14:12:19;21;21;
70255;PMS5003;57669;52.624;-1.688;2023-04-22T14:14:44;17;16;
70255;PMS5003;57669;52.624;-1.688;2023-04-22T14:17:10;18;17;
70255;PMS5003;57669;52.624;-1.688;2023-04-22T14:19:35;20;20;
70255;PMS5003;57669;52.624;-1.688;2023-04-22T14:22:00;22;21;
70255;PMS5003;57669;52.624;-1.688;2023-04-22T14:24:27;27;27;
70255;PMS5003;57669;52.624;-1.688;2023-04-22T14:26:51;21;21;
70255;PMS5003;57669;52.624;-1.688;2023-04-22T14:29:17;21;20;
70255;PMS5003;57669;52.624;-1.688;2023-04-22T14:31:43;20;20;
70255;PMS5003;57669;52.624;-1.688;2023-04-22T14:34:08;24;23;
70255;PMS5003;57669;52.624;-1.688;2023-04-22T14:36:33;23;23;
70255;PMS5003;57669;52.624;-1.688;2023-04-22T14:38:59;25;25;
70255;PMS5003;57669;52.624;-1.688;2023-04-22T14:41:24;21;21;
70255;PMS5003;57669;52.624;-1.688;2023-04-22T14:43:50;22;21;
70255;PMS5003;57669;52.624;-1.688;2023-04-22T14:46:15;19;19;
70255;PMS5003;57669;52.624;-1.688;2023-04-22T14:48:41;23;22;
70255;PMS5003;57669;52.624;-1.688;2023-04-22T14:51:06;16;16;
70255;PMS5003;57669;52.624;-1.688;2023-04-22T14:53:32;24;21;
70255;PMS5003;57669;52.624;-1.688;2023-04-22T14:55:57;22;20;
70255;PMS5003;57669;52.624;-1.688;2023-04-22T14:58:22;22;21;
70255;PMS5003;57669;52.624;-1.688;2023-04-22T15:00:48;21;19;
70255;PMS5003;57669;52.624;-1.688;2023-04-22T15:03:13;20;19;
70255;PMS5003;57669;52.624;-1.688;2023-04-22T15:05:38;20;20;
70255;PMS5003;57669;52.624;-1.688;2023-04-22T15:08:04;17;16;
70255;PMS5003;57669;52.624;-1.688;2023-04-22T15:10:30;16;16;
70255;PMS5003;57669;52.624;-1.688;2023-04-22T15:12:55;19;18;
70255;PMS5003;57669;52.624;-1.688;2023-04-22T15:15:20;18;17;
70255;PMS5003;57669;52.624;-1.688;2023-04-22T15:17:46;15;15;
70255;PMS5003;57669;52.624;-1.688;2023-04-22T15:20:11;16;16;
70255;PMS5003;57669;52.624;-1.688;2023-04-22T15:22:37;17;17;
70255;PMS5003;57669;52.624;-1.688;2023-04-22T15:25:02;18;18;
70255;PMS5003;57669;52.624;-1.688;2023-04-22T15:27:27;22;22;
70255;PMS5003;57669;52.624;-1.688;2023-04-22T15:29:53;19;19;
70255;PMS5003;57669;52.624;-1.688;2023-04-22T15:32:18;20;20;
70255;PMS5003;57669;52.624;-1.688;2023-04-22T15:34:44;19;17;
70255;PMS5003;57669;52.624;-1.688;2023-04-22T15:37:10;14;14;
70255;PMS5003;57669;52.624;-1.688;2023-04-22T15:39:36;14;14;
70255;PMS5003;57669;52.624;-1.688;2023-04-22T15:42:01;12;12;
70255;PMS5003;57669;52.624;-1.688;2023-04-22T15:44:27;14;14;
70255;PMS5003;57669;52.624;-1.688;2023-04-22T15:46:52;23;23;
70255;PMS5003;57669;52.624;-1.688;2023-04-22T15:49:18;15;15;
70255;PMS5003;57669;52.624;-1.688;2023-04-22T15:51:44;16;15;
70255;PMS5003;57669;52.624;-1.688;2023-04-22T15:54:10;20;20;
70255;PMS5003;57669;52.624;-1.688;2023-04-22T15:56:35;20;19;
70255;PMS5003;57669;52.624;-1.688;2023-04-22T15:59:01;24;23;
70255;PMS5003;57669;52.624;-1.688;2023-04-22T16:01:26;17;17;
70255;PMS5003;57669;52.624;-1.688;2023-04-22T16:03:52;18;16;